Time;durP1;ratioP1;P1;durP2;ratioP2;P2;SDS_P1;SDS_P2;PMS_P1;PMS_P2;Temp;Humidity;BMP_temperature;BMP_pressure;BME280_temperature;BME280_humidity;BME280_pressure;Samples;Min_cycle;Max_cycle;Signal;HPM_P1;HPM_P2
2022/05/13 00:00:16;;;;;;;8.63;3.13;;;11.60;99.90;;;;;;5134916;27;20055;-78
2022/05/13 00:02:43;;;;;;;12.95;3.42;;;11.60;99.90;;;;;;5127891;27;20545;-78
2022/05/13 00:05:10;;;;;;;11.23;3.58;;;11.60;99.90;;;;;;5114173;28;20083;-78
2022/05/13 00:07:36;;;;;;;10.52;3.22;;;11.60;99.90;;;;;;5119751;27;20043;-78
2022/05/13 00:10:06;;;;;;;13.98;3.00;;;11.60;99.90;;;;;;5133896;27;20483;-78
2022/05/13 00:12:36;;;;;;;8.80;2.92;;;11.60;99.90;;;;;;5134336;27;20042;-78
2022/05/13 00:15:04;;;;;;;11.93;2.80;;;11.60;99.90;;;;;;5135901;27;20035;-78
2022/05/13 00:17:30;;;;;;;12.45;3.00;;;11.70;99.90;;;;;;5132520;27;20043;-78
2022/05/13 00:19:55;;;;;;;12.15;2.78;;;11.70;99.90;;;;;;5134552;27;20562;-78
2022/05/13 00:22:22;;;;;;;13.25;3.35;;;11.80;99.90;;;;;;5133136;27;20394;-78
2022/05/13 00:24:48;;;;;;;12.73;3.08;;;11.80;99.90;;;;;;5118533;27;20042;-78
2022/05/13 00:27:14;;;;;;;12.15;2.65;;;11.80;99.90;;;;;;5096173;28;20073;-78
2022/05/13 00:29:40;;;;;;;10.70;2.60;;;11.80;99.90;;;;;;5126439;27;20043;-78
2022/05/13 00:32:07;;;;;;;12.05;2.78;;;11.80;99.90;;;;;;5133379;27;20133;-78
2022/05/13 00:34:33;;;;;;;10.32;2.50;;;11.80;99.90;;;;;;5134340;27;20417;-78
2022/05/13 00:36:59;;;;;;;10.85;2.50;;;11.80;99.90;;;;;;5111309;28;20042;-78
2022/05/13 00:39:25;;;;;;;14.85;3.25;;;11.90;99.90;;;;;;5113789;28;20050;-78
2022/05/13 00:41:53;;;;;;;12.77;2.88;;;11.90;99.90;;;;;;5116416;27;20465;-78
2022/05/13 00:44:21;;;;;;;12.30;3.45;;;11.90;99.90;;;;;;5135269;27;20130;-78
2022/05/13 00:46:47;;;;;;;7.72;2.53;;;11.90;99.90;;;;;;5133126;27;20134;-78
2022/05/13 00:49:15;;;;;;;11.85;3.50;;;11.90;99.90;;;;;;5127269;27;20207;-78
2022/05/13 00:51:47;;;;;;;14.65;3.38;;;11.90;99.90;;;;;;5111842;27;20117;-78
2022/05/13 00:54:15;;;;;;;12.20;2.60;;;11.90;99.90;;;;;;5153686;27;20055;-78
2022/05/13 00:56:44;;;;;;;13.40;3.13;;;12.00;99.90;;;;;;5136002;27;20042;-78
2022/05/13 00:59:17;;;;;;;10.30;2.83;;;12.00;99.90;;;;;;5154886;27;20046;-78
2022/05/13 01:01:43;;;;;;;12.18;2.97;;;11.90;99.90;;;;;;5133972;27;20053;-78
2022/05/13 01:04:12;;;;;;;10.43;2.90;;;12.00;99.90;;;;;;5137154;27;20050;-78
2022/05/13 01:06:42;;;;;;;12.20;2.63;;;11.90;99.90;;;;;;5131132;27;20560;-78
2022/05/13 01:09:08;;;;;;;8.27;2.97;;;12.00;99.90;;;;;;5120234;27;20072;-78
2022/05/13 01:11:37;;;;;;;9.32;3.10;;;11.90;99.90;;;;;;5134873;27;20035;-78
2022/05/13 01:14:06;;;;;;;11.18;3.33;;;11.90;99.90;;;;;;5117262;27;20047;-78
2022/05/13 01:18:05;;;;;;;12.27;3.45;;;12.00;99.90;;;;;;5143937;27;20176;-78
2022/05/13 01:19:18;;;;;;;12.73;3.42;;;11.90;99.90;;;;;;5120538;27;20058;-78
2022/05/13 01:21:45;;;;;;;13.32;3.25;;;12.00;99.90;;;;;;5115663;28;20086;-78
2022/05/13 01:24:11;;;;;;;11.02;3.10;;;12.00;99.90;;;;;;5113279;27;20078;-78
2022/05/13 01:26:37;;;;;;;10.68;3.15;;;12.00;99.90;;;;;;5154548;27;20093;-78
2022/05/13 01:29:03;;;;;;;13.98;3.20;;;11.90;99.90;;;;;;5153662;27;20083;-78
2022/05/13 01:31:39;;;;;;;10.75;3.58;;;11.90;99.90;;;;;;5150623;27;20043;-78
2022/05/13 01:34:11;;;;;;;13.00;3.95;;;12.00;99.90;;;;;;5135944;27;20050;-78
2022/05/13 01:36:39;;;;;;;13.73;3.55;;;11.90;99.90;;;;;;5135162;27;20047;-78
2022/05/13 01:39:06;;;;;;;10.90;3.42;;;11.90;99.90;;;;;;5119398;27;20050;-78
2022/05/13 01:41:32;;;;;;;11.93;3.17;;;11.90;99.90;;;;;;5105947;28;20501;-78
2022/05/13 01:43:57;;;;;;;14.52;4.85;;;11.90;99.90;;;;;;5116037;28;20039;-78
2022/05/13 01:46:24;;;;;;;12.45;3.70;;;11.90;99.90;;;;;;5124839;27;20050;-78
2022/05/13 01:48:51;;;;;;;19.33;5.60;;;11.90;99.90;;;;;;5137916;27;20047;-78
2022/05/13 01:51:17;;;;;;;19.77;3.45;;;11.90;99.90;;;;;;5139436;27;20122;-78
2022/05/13 01:53:43;;;;;;;12.90;3.88;;;11.90;99.90;;;;;;5136804;27;20047;-78
2022/05/13 01:56:09;;;;;;;18.30;3.85;;;11.90;99.90;;;;;;5116917;27;20081;-78
2022/05/13 01:58:36;;;;;;;12.40;4.30;;;11.90;99.90;;;;;;5116672;28;20490;-78
2022/05/13 02:01:05;;;;;;;16.63;4.60;;;12.00;99.90;;;;;;5130158;27;20043;-78
2022/05/13 02:03:45;;;;;;;17.65;3.75;;;12.00;99.90;;;;;;5115886;28;20054;-78
2022/05/13 02:06:19;;;;;;;19.80;4.75;;;12.00;99.90;;;;;;5117664;27;20036;-78
2022/05/13 02:08:46;;;;;;;19.63;4.10;;;12.00;99.90;;;;;;5116542;28;20445;-78
2022/05/13 02:11:12;;;;;;;17.88;3.92;;;12.00;99.90;;;;;;5133552;27;20050;-78
2022/05/13 02:13:39;;;;;;;16.95;4.30;;;12.00;99.90;;;;;;5117015;27;20490;-78
2022/05/13 02:16:05;;;;;;;17.08;4.63;;;12.00;99.90;;;;;;5131549;27;20498;-78
2022/05/13 02:18:31;;;;;;;16.05;4.70;;;12.10;99.90;;;;;;5127159;27;20441;-78
2022/05/13 02:20:57;;;;;;;21.80;4.55;;;12.10;99.90;;;;;;5117246;28;20046;-79
2022/05/13 02:23:23;;;;;;;16.17;3.97;;;12.10;99.90;;;;;;5122513;27;20051;-78
2022/05/13 02:25:50;;;;;;;17.02;4.35;;;12.10;99.90;;;;;;5137747;27;20122;-78
2022/05/13 02:28:17;;;;;;;19.30;4.93;;;12.10;99.90;;;;;;5129104;27;20050;-78
2022/05/13 02:30:43;;;;;;;16.85;5.15;;;12.10;99.90;;;;;;5125137;27;20043;-78
2022/05/13 02:33:09;;;;;;;18.92;5.40;;;12.10;99.90;;;;;;5135156;27;20062;-79
2022/05/13 02:35:35;;;;;;;17.42;4.43;;;12.10;99.90;;;;;;5136379;27;20101;-79
2022/05/13 02:38:00;;;;;;;16.08;5.03;;;12.10;99.90;;;;;;5134671;27;20050;-78
2022/05/13 02:41:11;;;;;;;19.85;5.38;;;12.10;99.90;;;;;;5136210;27;20418;-79
2022/05/13 02:43:12;;;;;;;20.33;6.60;;;12.10;99.90;;;;;;5131599;27;20048;-79
2022/05/13 02:45:39;;;;;;;21.40;5.68;;;12.10;99.90;;;;;;5116551;28;20123;-79
2022/05/13 02:48:05;;;;;;;17.23;4.47;;;12.10;99.90;;;;;;5134375;27;20058;-78
2022/05/13 02:50:31;;;;;;;20.33;5.15;;;12.10;99.90;;;;;;5137172;27;20398;-78
2022/05/13 02:52:58;;;;;;;17.23;4.32;;;12.10;99.90;;;;;;5108668;28;20039;-78
2022/05/13 02:55:24;;;;;;;23.38;5.38;;;12.10;99.90;;;;;;5115772;28;20055;-78
2022/05/13 02:57:49;;;;;;;17.95;5.70;;;12.10;99.90;;;;;;5130451;27;20039;-79
2022/05/13 03:00:15;;;;;;;19.05;4.82;;;12.10;99.90;;;;;;5135278;27;20046;-78
2022/05/13 03:02:43;;;;;;;17.67;5.35;;;12.10;99.90;;;;;;5104138;28;20036;-79
2022/05/13 03:05:10;;;;;;;17.88;4.07;;;12.10;99.90;;;;;;5116168;27;20050;-79
2022/05/13 03:07:35;;;;;;;16.55;4.15;;;12.10;99.90;;;;;;5136247;27;20100;-79
2022/05/13 03:10:02;;;;;;;17.05;4.95;;;12.10;99.90;;;;;;5117369;27;20691;-79
2022/05/13 03:12:28;;;;;;;20.73;4.75;;;12.10;99.90;;;;;;5118138;27;20407;-79
2022/05/13 03:14:53;;;;;;;17.73;4.68;;;12.10;99.90;;;;;;5136947;27;20117;-78
2022/05/13 03:17:19;;;;;;;18.83;4.50;;;12.10;99.90;;;;;;5098782;28;20054;-78
2022/05/13 03:19:45;;;;;;;18.35;4.85;;;12.10;99.90;;;;;;5114719;28;20453;-79
2022/05/13 03:22:11;;;;;;;16.95;3.83;;;12.10;99.90;;;;;;5132248;27;20039;-79
2022/05/13 03:24:39;;;;;;;18.40;4.80;;;12.10;99.90;;;;;;5135139;27;20080;-79
2022/05/13 03:27:07;;;;;;;21.90;5.57;;;12.10;99.90;;;;;;5133567;27;20054;-79
2022/05/13 03:29:35;;;;;;;29.35;5.22;;;12.10;99.90;;;;;;5135473;27;20054;-79
2022/05/13 03:32:04;;;;;;;18.13;4.57;;;12.10;99.90;;;;;;5133512;27;20047;-79
2022/05/13 03:34:31;;;;;;;17.10;5.25;;;12.10;99.90;;;;;;5118282;27;20461;-79
2022/05/13 03:36:57;;;;;;;28.85;6.43;;;12.10;99.90;;;;;;5133684;27;20113;-78
2022/05/13 03:39:22;;;;;;;17.67;3.70;;;12.10;99.90;;;;;;5134809;27;20078;-79
2022/05/13 03:41:48;;;;;;;18.10;4.88;;;12.10;99.90;;;;;;5097438;28;20487;-78
2022/05/13 03:44:14;;;;;;;18.80;4.28;;;12.10;99.90;;;;;;5115922;28;20039;-78
2022/05/13 03:46:40;;;;;;;21.33;4.53;;;12.10;99.90;;;;;;5113830;27;20047;-79
2022/05/13 03:49:08;;;;;;;25.30;5.93;;;12.10;99.90;;;;;;5113803;28;20054;-78
2022/05/13 03:51:35;;;;;;;19.85;5.00;;;12.10;99.90;;;;;;5131515;27;20116;-78
2022/05/13 03:54:00;;;;;;;28.52;5.78;;;12.10;99.90;;;;;;5152966;27;20065;-79
2022/05/13 03:56:26;;;;;;;21.23;4.45;;;12.10;99.90;;;;;;5154903;27;20047;-78
2022/05/13 03:58:52;;;;;;;23.00;4.80;;;12.10;99.90;;;;;;5156905;27;20037;-78
2022/05/13 04:01:18;;;;;;;19.10;5.28;;;12.10;99.90;;;;;;5153606;27;20123;-78
2022/05/13 04:03:44;;;;;;;19.02;4.78;;;12.10;99.90;;;;;;5138005;27;20091;-79
2022/05/13 04:08:57;;;;;;;25.23;5.80;;;12.10;99.90;;;;;;5135398;27;20072;-79
2022/05/13 04:11:28;;;;;;;20.90;4.85;;;12.10;99.90;;;;;;5152099;27;20039;-79
2022/05/13 04:16:38;;;;;;;24.65;4.85;;;12.10;99.90;;;;;;5154312;27;20129;-79
2022/05/13 04:19:04;;;;;;;24.88;4.80;;;12.10;99.90;;;;;;5156404;27;20082;-79
2022/05/13 04:21:33;;;;;;;25.92;4.40;;;12.10;99.90;;;;;;5154804;27;20117;-79
2022/05/13 04:24:03;;;;;;;26.88;4.53;;;12.10;99.90;;;;;;5137069;27;20046;-79
2022/05/13 04:26:29;;;;;;;20.27;3.95;;;12.10;99.90;;;;;;5118516;27;20047;-79
2022/05/13 04:28:55;;;;;;;18.95;4.00;;;12.20;99.90;;;;;;5123833;27;20051;-79
2022/05/13 04:31:25;;;;;;;19.52;4.18;;;12.20;99.90;;;;;;5116703;27;20054;-80
2022/05/13 04:33:52;;;;;;;16.38;3.47;;;12.20;99.90;;;;;;5123169;27;20050;-79
2022/05/13 04:36:19;;;;;;;21.50;3.60;;;12.20;99.90;;;;;;5116806;27;20050;-79
2022/05/13 04:38:45;;;;;;;18.15;3.60;;;12.30;99.90;;;;;;5142443;27;20107;-79
2022/05/13 04:43:57;;;;;;;17.42;3.83;;;12.30;99.90;;;;;;5153995;27;20073;-79
2022/05/13 04:46:23;;;;;;;13.32;3.03;;;12.30;99.90;;;;;;5137421;27;20049;-79
2022/05/13 04:48:50;;;;;;;18.05;3.28;;;12.30;99.90;;;;;;5135588;27;20103;-79
2022/05/13 04:51:19;;;;;;;18.40;3.22;;;12.30;99.90;;;;;;5132201;27;20051;-79
2022/05/13 04:53:48;;;;;;;17.30;2.85;;;12.30;99.90;;;;;;5134652;27;20066;-79
2022/05/13 04:56:17;;;;;;;16.42;3.28;;;12.30;99.90;;;;;;5134269;27;20043;-79
2022/05/13 04:58:43;;;;;;;16.08;3.33;;;12.30;99.90;;;;;;5119195;27;20043;-79
2022/05/13 05:01:10;;;;;;;16.08;2.85;;;12.30;99.90;;;;;;5119960;27;20046;-79
2022/05/13 05:03:36;;;;;;;17.67;3.13;;;12.30;99.90;;;;;;5148979;27;20043;-80
2022/05/13 05:06:03;;;;;;;13.88;3.08;;;12.40;99.90;;;;;;5147889;27;20118;-80
2022/05/13 05:08:30;;;;;;;15.98;2.90;;;12.40;99.90;;;;;;5149649;27;20088;-79
2022/05/13 05:10:56;;;;;;;13.10;3.35;;;12.40;99.90;;;;;;5116396;27;20092;-79
2022/05/13 05:13:25;;;;;;;13.80;3.22;;;12.50;99.90;;;;;;5115576;27;20055;-79
2022/05/13 05:15:51;;;;;;;15.13;3.17;;;12.50;99.90;;;;;;5150709;27;20439;-79
2022/05/13 05:18:18;;;;;;;14.00;2.90;;;12.50;99.90;;;;;;5134283;27;20051;-79
2022/05/13 05:20:44;;;;;;;10.75;2.75;;;12.50;99.90;;;;;;5135934;27;20493;-79
2022/05/13 05:23:14;;;;;;;10.48;2.35;;;12.60;99.90;;;;;;5123522;27;20046;-79
2022/05/13 05:25:41;;;;;;;14.73;3.15;;;12.60;99.90;;;;;;5116084;27;20474;-79
2022/05/13 05:28:07;;;;;;;12.30;2.70;;;12.70;99.90;;;;;;5098465;27;20051;-79
2022/05/13 05:30:33;;;;;;;13.00;2.97;;;12.70;99.90;;;;;;5134125;27;20035;-79
2022/05/13 05:32:58;;;;;;;12.63;3.13;;;12.70;99.90;;;;;;5124595;27;20382;-79
2022/05/13 05:35:24;;;;;;;11.43;1.90;;;12.80;99.90;;;;;;5136539;27;20046;-79
2022/05/13 05:37:50;;;;;;;8.40;2.05;;;12.80;99.90;;;;;;5126966;28;20051;-80
2022/05/13 05:40:16;;;;;;;14.80;3.03;;;12.80;99.90;;;;;;5115351;28;20047;-80
2022/05/13 05:42:42;;;;;;;9.85;2.42;;;12.80;99.90;;;;;;5121691;27;20038;-79
2022/05/13 05:45:11;;;;;;;6.65;1.75;;;12.90;99.90;;;;;;5154755;27;20056;-79
2022/05/13 05:47:37;;;;;;;8.75;2.28;;;12.90;99.90;;;;;;5134827;27;20431;-81
2022/05/13 05:50:06;;;;;;;14.05;2.75;;;12.90;99.90;;;;;;5152701;27;20046;-80
2022/05/13 05:52:31;;;;;;;12.85;2.60;;;12.90;99.90;;;;;;5115318;28;20083;-81
2022/05/13 05:58:00;;;;;;;11.53;2.87;;;13.00;99.90;;;;;;5124405;27;20039;-80
2022/05/13 06:00:27;;;;;;;12.18;2.55;;;13.00;99.90;;;;;;5118594;27;20074;-79
2022/05/13 06:02:53;;;;;;;11.23;2.05;;;13.00;99.90;;;;;;5133579;27;20169;-80
2022/05/13 06:05:19;;;;;;;9.55;2.65;;;13.10;99.90;;;;;;5135558;27;20039;-79
2022/05/13 06:07:50;;;;;;;8.57;2.22;;;13.10;99.90;;;;;;5134611;27;20057;-81
2022/05/13 06:10:17;;;;;;;13.10;2.30;;;13.10;99.90;;;;;;5121261;28;20122;-81
2022/05/13 06:12:43;;;;;;;11.85;2.13;;;13.20;99.90;;;;;;5114901;27;20123;-80
2022/05/13 06:15:10;;;;;;;10.77;2.38;;;13.20;99.90;;;;;;5135668;27;20054;-80
2022/05/13 06:17:41;;;;;;;9.20;1.80;;;13.30;99.90;;;;;;5136080;27;20534;-80
2022/05/13 06:20:07;;;;;;;11.60;3.25;;;13.30;99.90;;;;;;5136261;27;20047;-80
2022/05/13 06:22:33;;;;;;;8.63;2.33;;;13.30;99.90;;;;;;5135684;27;20092;-80
2022/05/13 06:25:01;;;;;;;10.48;1.90;;;13.30;99.90;;;;;;5153110;27;20078;-81
2022/05/13 06:27:27;;;;;;;8.15;1.83;;;13.40;99.90;;;;;;5135804;27;20397;-81
2022/05/13 06:29:53;;;;;;;9.93;2.00;;;13.40;99.90;;;;;;5152387;27;20039;-80
2022/05/13 06:32:20;;;;;;;7.55;1.83;;;13.40;99.90;;;;;;5134050;27;20371;-82
2022/05/13 06:34:46;;;;;;;7.97;1.92;;;13.40;99.90;;;;;;5155811;27;20051;-78
2022/05/13 06:37:12;;;;;;;5.20;1.65;;;13.50;99.90;;;;;;5139213;27;20064;-80
2022/05/13 06:39:37;;;;;;;8.32;1.65;;;13.50;99.90;;;;;;5104536;27;20125;-80
2022/05/13 06:42:03;;;;;;;8.73;2.00;;;13.50;99.90;;;;;;5138148;27;20098;-79
2022/05/13 06:44:31;;;;;;;10.95;2.10;;;13.50;99.90;;;;;;5138649;27;20501;-80
2022/05/13 06:46:56;;;;;;;9.27;1.95;;;13.50;99.90;;;;;;5134350;27;20371;-80
2022/05/13 06:49:22;;;;;;;7.07;1.50;;;13.60;99.90;;;;;;5137031;27;20064;-82
2022/05/13 06:51:48;;;;;;;11.00;2.30;;;13.60;99.90;;;;;;5100745;27;20043;-82
2022/05/13 06:54:14;;;;;;;10.15;3.08;;;13.60;99.90;;;;;;5115014;28;20056;-81
2022/05/13 06:56:43;;;;;;;6.97;2.20;;;13.70;99.90;;;;;;5120237;27;20039;-81
2022/05/13 06:59:10;;;;;;;8.25;1.95;;;13.70;99.90;;;;;;5136882;27;20073;-79
2022/05/13 07:01:37;;;;;;;11.05;1.85;;;13.70;99.90;;;;;;5135562;27;20043;-80
2022/05/13 07:04:04;;;;;;;5.40;1.60;;;13.80;99.90;;;;;;5131362;27;20057;-82
2022/05/13 07:06:30;;;;;;;13.95;2.30;;;13.80;99.90;;;;;;5097853;28;20527;-82
2022/05/13 07:08:56;;;;;;;14.75;2.30;;;13.80;99.90;;;;;;5117427;27;20039;-81
2022/05/13 07:11:23;;;;;;;8.48;1.90;;;13.80;99.90;;;;;;5133318;27;20398;-81
2022/05/13 07:13:49;;;;;;;9.63;1.95;;;13.80;99.90;;;;;;5132992;27;20047;-80
2022/05/13 07:16:14;;;;;;;9.98;1.75;;;13.90;99.90;;;;;;5126193;27;20126;-81
2022/05/13 07:18:42;;;;;;;7.78;1.77;;;14.00;99.90;;;;;;5118581;27;20111;-82
2022/05/13 07:21:08;;;;;;;7.35;1.42;;;14.00;99.90;;;;;;5114761;27;20092;-80
2022/05/13 07:23:33;;;;;;;6.53;1.80;;;14.00;99.90;;;;;;5115841;28;20048;-82
2022/05/13 07:26:00;;;;;;;9.68;1.90;;;14.10;99.90;;;;;;5097183;28;20096;-79
2022/05/13 07:28:26;;;;;;;8.68;1.63;;;14.10;99.90;;;;;;5134854;27;20043;-80
2022/05/13 07:30:53;;;;;;;7.60;1.90;;;14.10;99.90;;;;;;5135181;27;20441;-80
2022/05/13 07:33:20;;;;;;;6.63;1.75;;;14.10;99.90;;;;;;5133157;27;20047;-81
2022/05/13 07:35:46;;;;;;;7.72;1.40;;;14.10;99.90;;;;;;5118374;27;20138;-83
2022/05/13 07:38:12;;;;;;;7.35;2.08;;;14.20;99.90;;;;;;5133930;27;20409;-81
2022/05/13 07:43:22;;;;;;;10.13;1.73;;;14.20;99.90;;;;;;5133647;27;20078;-81
2022/05/13 07:45:47;;;;;;;7.50;1.75;;;14.20;99.90;;;;;;5133646;27;20074;-79
2022/05/13 07:48:13;;;;;;;10.82;2.08;;;14.20;99.90;;;;;;5133171;27;20081;-79
2022/05/13 07:50:39;;;;;;;13.45;1.85;;;14.30;99.90;;;;;;5134328;27;20042;-79
2022/05/13 07:53:05;;;;;;;8.80;2.67;;;14.30;99.90;;;;;;5133135;27;20103;-82
2022/05/13 07:55:31;;;;;;;5.80;1.70;;;14.30;99.90;;;;;;5135453;27;20505;-79
2022/05/13 07:57:57;;;;;;;10.13;1.42;;;14.20;99.90;;;;;;5134394;27;20047;-80
2022/05/13 08:00:27;;;;;;;7.97;1.70;;;14.20;99.90;;;;;;5134986;27;20043;-80
2022/05/13 08:03:00;;;;;;;6.63;1.40;;;14.10;99.90;;;;;;5098846;28;20522;-80
2022/05/13 08:05:32;;;;;;;10.45;1.85;;;14.10;99.90;;;;;;5114211;28;20457;-79
2022/05/13 08:08:06;;;;;;;12.95;1.55;;;14.10;99.90;;;;;;5128356;27;20046;-83
2022/05/13 08:10:33;;;;;;;11.50;1.70;;;14.00;99.90;;;;;;5117497;27;20043;-80
2022/05/13 08:12:58;;;;;;;5.22;1.60;;;14.10;99.90;;;;;;5098641;28;20055;-80
2022/05/13 08:15:24;;;;;;;7.43;1.60;;;14.20;99.90;;;;;;5124127;27;20047;-80
2022/05/13 08:17:50;;;;;;;8.30;1.60;;;14.30;99.90;;;;;;5134243;27;20057;-84
2022/05/13 08:20:16;;;;;;;7.93;1.90;;;14.30;99.90;;;;;;5088586;28;20149;-83
2022/05/13 08:22:42;;;;;;;12.48;1.50;;;14.20;99.90;;;;;;5113204;28;20039;-83
2022/05/13 08:25:08;;;;;;;5.18;1.60;;;14.20;99.90;;;;;;5114779;27;20043;-80
2022/05/13 08:27:34;;;;;;;9.57;1.58;;;14.20;99.90;;;;;;5125502;27;20643;-82
2022/05/13 08:30:01;;;;;;;5.57;1.73;;;14.30;99.90;;;;;;5134807;27;20046;-81
2022/05/13 08:32:28;;;;;;;8.88;2.45;;;14.40;99.90;;;;;;5115264;27;20047;-82
2022/05/13 08:34:54;;;;;;;11.75;2.17;;;14.40;99.90;;;;;;5135078;27;20447;-80
2022/05/13 08:37:20;;;;;;;9.63;2.35;;;14.40;99.90;;;;;;5133123;27;20471;-80
2022/05/13 08:39:46;;;;;;;7.00;1.85;;;14.40;99.90;;;;;;5121451;27;20113;-84
2022/05/13 08:42:24;;;;;;;7.95;1.52;;;14.50;99.90;;;;;;5114574;28;20040;-80
2022/05/13 08:44:52;;;;;;;6.47;1.50;;;14.60;99.90;;;;;;5132017;27;20092;-80
2022/05/13 08:47:44;;;;;;;3.83;1.15;;;14.60;99.90;;;;;;5133542;27;20114;-81
2022/05/13 08:50:20;;;;;;;8.02;2.10;;;14.60;99.90;;;;;;5112842;28;20055;-81
2022/05/13 08:53:06;;;;;;;12.40;2.08;;;14.50;99.90;;;;;;5113363;27;20143;-80
2022/05/13 08:55:40;;;;;;;6.85;1.85;;;14.50;99.90;;;;;;5133651;27;20055;-82
2022/05/13 08:58:11;;;;;;;4.68;2.00;;;14.60;99.90;;;;;;5128474;27;20405;-82
2022/05/13 09:00:52;;;;;;;8.05;1.55;;;14.80;99.90;;;;;;5113094;28;20043;-81
2022/05/13 09:03:34;;;;;;;7.55;1.33;;;15.10;99.90;;;;;;5112772;27;20483;-79
2022/05/13 09:06:06;;;;;;;4.05;1.20;;;15.30;99.90;;;;;;5113637;28;20051;-81
2022/05/13 09:08:35;;;;;;;5.72;1.58;;;15.40;99.90;;;;;;5118561;27;20035;-79
2022/05/13 09:11:28;;;;;;;9.02;1.70;;;15.40;99.90;;;;;;5120374;27;20494;-83
2022/05/13 09:14:31;;;;;;;9.70;1.60;;;15.50;99.90;;;;;;5112266;28;20470;-82
2022/05/13 09:17:00;;;;;;;7.70;1.70;;;15.50;99.90;;;;;;5095118;28;20098;-82
2022/05/13 09:19:32;;;;;;;6.03;1.63;;;15.50;99.90;;;;;;5112785;27;20494;-82
2022/05/13 09:21:58;;;;;;;5.03;1.20;;;15.60;99.90;;;;;;5113738;28;20101;-80
2022/05/13 09:24:23;;;;;;;5.47;1.73;;;15.60;99.90;;;;;;5122997;27;20039;-80
2022/05/13 09:26:52;;;;;;;5.32;1.40;;;15.70;99.90;;;;;;5132895;27;20058;-82
2022/05/13 09:29:19;;;;;;;6.18;1.65;;;15.60;99.90;;;;;;5131461;27;20417;-82
2022/05/13 09:32:01;;;;;;;4.10;1.35;;;15.50;99.90;;;;;;5133233;27;20059;-81
2022/05/13 09:34:26;;;;;;;6.75;1.20;;;15.50;99.90;;;;;;5118882;27;20055;-79
2022/05/13 09:37:01;;;;;;;4.05;1.45;;;15.50;99.90;;;;;;5112291;28;20043;-81
2022/05/13 09:39:40;;;;;;;9.13;1.77;;;15.50;99.90;;;;;;5123786;28;20058;-81
2022/05/13 09:42:18;;;;;;;7.60;1.80;;;15.40;99.90;;;;;;5113757;28;20038;-80
2022/05/13 09:44:46;;;;;;;7.82;1.70;;;15.30;99.90;;;;;;5112738;28;20128;-81
2022/05/13 09:47:17;;;;;;;8.77;2.42;;;15.40;99.90;;;;;;5111608;28;20039;-81
2022/05/13 09:49:48;;;;;;;7.80;2.43;;;15.50;99.90;;;;;;5114287;28;20122;-77
2022/05/13 09:52:18;;;;;;;9.55;2.20;;;15.70;99.90;;;;;;5112253;28;20048;-80
2022/05/13 09:54:47;;;;;;;9.93;2.42;;;15.80;99.90;;;;;;5132284;28;20184;-80
2022/05/13 09:57:28;;;;;;;14.00;3.45;;;15.90;99.90;;;;;;5131561;28;20092;-81
2022/05/13 09:59:55;;;;;;;9.32;2.08;;;15.90;99.90;;;;;;5112551;28;20398;-80
2022/05/13 10:02:28;;;;;;;5.72;1.40;;;15.90;99.90;;;;;;5112962;28;20047;-79
2022/05/13 10:05:09;;;;;;;9.00;1.88;;;15.90;99.90;;;;;;5133963;27;20495;-80
2022/05/13 10:07:41;;;;;;;5.30;1.27;;;15.80;99.90;;;;;;5128857;28;20043;-79
2022/05/13 10:15:45;;;;;;;8.02;2.33;;;15.70;99.90;;;;;;5135489;27;20086;-79
2022/05/13 10:18:19;;;;;;;4.57;1.15;;;15.80;99.90;;;;;;5119168;27;20035;-79
2022/05/13 10:20:46;;;;;;;10.02;1.83;;;15.80;99.90;;;;;;5117501;28;20047;-79
2022/05/13 10:23:34;;;;;;;11.65;2.10;;;15.70;99.90;;;;;;5133914;27;20047;-81
2022/05/13 10:26:17;;;;;;;8.77;1.85;;;15.70;99.90;;;;;;5118070;27;20130;-80
2022/05/13 10:29:15;;;;;;;6.90;1.52;;;15.70;99.90;;;;;;5135465;27;20035;-82
2022/05/13 10:31:43;;;;;;;4.70;1.58;;;15.70;99.90;;;;;;5101638;28;20051;-80
2022/05/13 10:34:39;;;;;;;5.90;2.03;;;15.70;99.90;;;;;;5115846;28;20036;-79
2022/05/13 10:37:05;;;;;;;6.65;1.95;;;15.80;99.90;;;;;;5115384;28;20119;-78
2022/05/13 10:39:45;;;;;;;9.95;2.00;;;15.90;99.90;;;;;;5134113;27;20122;-81
2022/05/13 10:42:28;;;;;;;12.55;2.17;;;16.00;99.90;;;;;;5136195;27;20080;-79
2022/05/13 10:45:17;;;;;;;10.40;1.70;;;16.00;99.90;;;;;;5117234;28;20039;-79
2022/05/13 10:47:48;;;;;;;8.50;1.80;;;16.10;99.90;;;;;;5098556;28;20097;-79
2022/05/13 10:50:21;;;;;;;13.15;3.05;;;16.20;99.90;;;;;;5116644;27;20048;-81
2022/05/13 10:53:14;;;;;;;7.05;1.88;;;16.40;99.90;;;;;;5127152;27;20051;-81
2022/05/13 10:56:08;;;;;;;4.55;1.38;;;16.60;99.90;;;;;;5131304;27;20051;-82
2022/05/13 10:58:41;;;;;;;4.60;1.88;;;16.70;99.90;;;;;;5125342;27;20043;-79
2022/05/13 11:01:29;;;;;;;3.93;1.50;;;16.90;99.90;;;;;;5118659;27;20043;-79
2022/05/13 11:03:54;;;;;;;6.45;1.60;;;16.90;99.90;;;;;;5134001;27;20552;-81
2022/05/13 11:06:35;;;;;;;5.32;1.25;;;17.00;99.90;;;;;;5137291;27;20118;-81
2022/05/13 11:09:19;;;;;;;5.70;1.85;;;17.00;99.90;;;;;;5118206;27;20047;-82
2022/05/13 11:11:45;;;;;;;7.57;1.80;;;17.20;99.90;;;;;;5115016;28;20390;-82
2022/05/13 11:14:45;;;;;;;8.27;1.83;;;17.30;99.90;;;;;;5098907;27;20047;-81
2022/05/13 11:17:33;;;;;;;4.25;1.40;;;17.30;99.90;;;;;;5123934;27;20082;-78
2022/05/13 11:20:05;;;;;;;13.38;2.55;;;17.10;99.90;;;;;;5116878;28;20050;-81
2022/05/13 11:22:57;;;;;;;8.00;1.67;;;16.80;99.90;;;;;;5115392;27;20039;-81
2022/05/13 11:29:05;;;;;;;8.35;2.30;;;16.40;99.90;;;;;;5126496;27;20039;-79
2022/05/13 11:31:40;;;;;;;7.60;1.50;;;16.20;99.90;;;;;;5052847;28;20504;-80
2022/05/13 11:34:08;;;;;;;51.30;3.22;;;16.00;99.90;;;;;;5035395;28;20527;-80
2022/05/13 11:37:06;;;;;;;4.22;1.20;;;15.90;99.90;;;;;;5083710;28;20047;-80
2022/05/13 11:39:56;;;;;;;8.07;2.00;;;15.90;99.90;;;;;;5115472;28;20089;-79
2022/05/13 11:46:05;;;;;;;5.72;1.60;;;15.80;99.90;;;;;;5133741;27;20039;-79
2022/05/13 11:48:48;;;;;;;6.63;1.40;;;15.80;99.90;;;;;;5044559;28;20100;-80
2022/05/13 11:51:19;;;;;;;9.38;2.28;;;15.90;99.90;;;;;;5122021;27;20086;-79
2022/05/13 11:53:46;;;;;;;8.52;1.50;;;16.00;99.90;;;;;;5143899;27;20059;-80
2022/05/13 11:56:16;;;;;;;8.27;1.48;;;16.10;99.90;;;;;;5142015;27;20460;-80
2022/05/13 11:59:04;;;;;;;9.25;2.22;;;16.30;99.90;;;;;;5117940;27;20047;-81
2022/05/13 12:01:38;;;;;;;11.13;1.65;;;16.50;99.90;;;;;;5125882;27;20043;-81
2022/05/13 12:04:13;;;;;;;4.93;1.48;;;16.60;99.90;;;;;;5118517;27;20039;-82
2022/05/13 12:06:50;;;;;;;6.05;1.98;;;16.70;99.90;;;;;;5149251;27;20375;-81
2022/05/13 12:09:30;;;;;;;5.50;1.75;;;16.80;99.90;;;;;;5127795;27;20440;-81
2022/05/13 12:12:01;;;;;;;8.02;1.70;;;17.00;99.90;;;;;;5100293;27;20062;-81
2022/05/13 12:14:41;;;;;;;6.57;1.58;;;17.20;99.90;;;;;;5117228;27;20100;-81
2022/05/13 12:17:32;;;;;;;9.65;1.50;;;17.30;99.90;;;;;;5135215;27;20050;-81
2022/05/13 12:20:24;;;;;;;6.63;1.75;;;17.20;99.90;;;;;;5105162;27;20038;-80
2022/05/13 12:23:15;;;;;;;5.05;1.40;;;17.20;99.90;;;;;;5121149;27;20189;-81
2022/05/13 12:25:52;;;;;;;7.45;1.55;;;17.10;99.90;;;;;;5117089;27;20083;-80
2022/05/13 12:28:18;;;;;;;5.75;1.45;;;17.00;99.90;;;;;;5124655;27;20069;-81
2022/05/13 12:30:47;;;;;;;5.28;1.70;;;17.10;99.90;;;;;;5137714;27;20042;-82
2022/05/13 12:33:24;;;;;;;7.47;1.75;;;17.10;99.90;;;;;;5141186;27;20043;-83
2022/05/13 12:39:09;;;;;;;7.50;1.67;;;17.10;99.90;;;;;;5137406;27;20130;-80
2022/05/13 12:42:09;;;;;;;9.05;1.92;;;17.20;99.90;;;;;;5116758;27;20184;-80
2022/05/13 12:44:57;;;;;;;8.20;2.17;;;17.40;99.90;;;;;;5119753;27;20062;-86
2022/05/13 12:47:28;;;;;;;9.05;1.95;;;17.40;99.90;;;;;;5129089;27;20110;-80
2022/05/13 12:49:56;;;;;;;8.50;2.90;;;17.40;99.90;;;;;;5120650;27;20043;-83
2022/05/13 12:52:34;;;;;;;7.18;1.80;;;17.40;99.90;;;;;;5121500;27;20537;-81
2022/05/13 12:55:06;;;;;;;8.10;1.85;;;17.50;99.90;;;;;;5153503;27;20076;-82
2022/05/13 12:57:59;;;;;;;5.47;1.23;;;17.50;99.90;;;;;;5131719;27;20050;-85
2022/05/13 13:00:34;;;;;;;10.80;2.28;;;17.50;99.90;;;;;;5133222;27;20122;-86
2022/05/13 13:03:03;;;;;;;9.45;1.88;;;16.90;99.90;;;;;;5136518;27;20122;-84
2022/05/13 13:05:35;;;;;;;9.38;2.20;;;17.40;99.90;;;;;;5143508;27;20039;-82
2022/05/13 13:08:04;;;;;;;6.90;2.35;;;17.50;99.90;;;;;;5119274;27;20412;-80
2022/05/13 13:10:32;;;;;;;9.25;2.83;;;17.60;99.90;;;;;;5140661;27;20099;-81
2022/05/13 13:13:19;;;;;;;10.18;2.55;;;17.70;99.90;;;;;;5135635;27;20038;-81
2022/05/13 13:15:51;;;;;;;7.60;2.05;;;17.50;99.90;;;;;;5147324;27;20038;-82
2022/05/13 13:18:32;;;;;;;12.70;2.20;;;17.40;99.90;;;;;;5136606;27;20035;-83
2022/05/13 13:21:07;;;;;;;8.65;2.20;;;17.40;99.90;;;;;;5139094;27;20047;-83
2022/05/13 13:23:41;;;;;;;10.23;2.10;;;17.20;99.90;;;;;;5117335;28;20039;-82
2022/05/13 13:26:08;;;;;;;12.13;3.05;;;17.20;99.90;;;;;;5127035;27;20058;-82